createdAt,value
2023-02-14T00:00:59.482Z,9.05
2023-02-14T00:03:26.576Z,9.30
2023-02-14T00:05:53.379Z,9.63
2023-02-14T00:08:20.149Z,8.85
2023-02-14T00:10:47.046Z,9.02
2023-02-14T00:13:16.494Z,9.60
2023-02-14T00:15:43.292Z,9.13
2023-02-14T00:18:11.267Z,10.73
2023-02-14T00:20:37.980Z,9.35
2023-02-14T00:23:04.804Z,10.20
2023-02-14T00:25:33.448Z,9.40
2023-02-14T00:28:00.236Z,10.25
2023-02-14T00:30:28.537Z,9.68
2023-02-14T00:32:55.290Z,9.65
2023-02-14T00:35:22.108Z,10.02
2023-02-14T00:37:48.963Z,8.98
2023-02-14T00:40:16.525Z,9.07
2023-02-14T00:42:43.298Z,9.07
2023-02-14T00:45:10.298Z,8.45
2023-02-14T00:47:37.022Z,9.00
2023-02-14T00:50:05.174Z,8.90
2023-02-14T00:52:32.400Z,8.07
2023-02-14T00:54:59.684Z,8.38
2023-02-14T00:57:26.388Z,7.63
2023-02-14T00:59:53.227Z,7.97
2023-02-14T01:02:20.897Z,8.02
2023-02-14T01:04:47.813Z,8.38
2023-02-14T01:07:14.573Z,7.72
2023-02-14T01:09:42.229Z,8.13
2023-02-14T01:12:08.997Z,7.63
2023-02-14T01:14:35.759Z,7.57
2023-02-14T01:17:02.557Z,8.02
2023-02-14T01:19:29.447Z,7.60
2023-02-14T01:21:56.481Z,8.80
2023-02-14T01:24:23.353Z,7.72
2023-02-14T01:26:50.227Z,7.40
2023-02-14T01:29:17.174Z,7.22
2023-02-14T01:31:45.237Z,6.90
2023-02-14T01:34:13.023Z,6.63
2023-02-14T01:36:40.399Z,7.47
2023-02-14T01:39:14.938Z,6.95
2023-02-14T01:41:44.308Z,6.93
2023-02-14T01:44:17.017Z,6.57
2023-02-14T01:46:47.300Z,6.63
2023-02-14T01:49:30.096Z,6.07
2023-02-14T01:52:08.329Z,6.23
2023-02-14T01:54:38.854Z,6.45
2023-02-14T01:57:10.210Z,6.80
2023-02-14T01:59:46.355Z,6.05
2023-02-14T02:02:13.384Z,6.90
2023-02-14T02:04:44.924Z,6.60
2023-02-14T02:07:19.133Z,6.38
2023-02-14T02:09:51.479Z,6.65
2023-02-14T02:12:18.267Z,6.57
2023-02-14T02:14:45.902Z,7.47
2023-02-14T02:17:21.656Z,6.75
2023-02-14T02:20:00.571Z,6.82
2023-02-14T02:23:14.942Z,6.88
2023-02-14T02:26:20.404Z,7.07
2023-02-14T02:29:13.157Z,6.65
2023-02-14T02:31:51.559Z,7.10
2023-02-14T02:34:21.053Z,7.15
2023-02-14T02:36:55.099Z,6.47
2023-02-14T02:39:38.594Z,6.53
2023-02-14T02:42:23.786Z,6.88
2023-02-14T02:44:50.817Z,6.75
2023-02-14T02:47:46.865Z,7.60
2023-02-14T02:50:52.266Z,6.78
2023-02-14T02:53:40.759Z,6.97
2023-02-14T02:56:49.754Z,6.60
2023-02-14T02:59:34.892Z,7.10
2023-02-14T03:02:15.948Z,7.13
2023-02-14T03:04:55.437Z,7.50
2023-02-14T03:07:36.595Z,7.60
2023-02-14T03:10:24.289Z,6.82
2023-02-14T03:13:12.504Z,7.07
2023-02-14T03:15:57.347Z,7.95
2023-02-14T03:19:16.339Z,7.18
2023-02-14T03:22:20.428Z,6.85
2023-02-14T03:25:08.801Z,6.95
2023-02-14T03:28:09.477Z,7.30
2023-02-14T03:30:52.331Z,6.50
2023-02-14T03:33:36.727Z,7.10
2023-02-14T03:36:23.574Z,6.82
2023-02-14T03:39:00.867Z,6.10
2023-02-14T03:41:34.026Z,6.13
2023-02-14T03:44:07.377Z,6.38
2023-02-14T03:46:37.183Z,6.78
2023-02-14T03:49:08.817Z,6.55
2023-02-14T03:51:36.169Z,7.35
2023-02-14T03:54:06.764Z,6.47
2023-02-14T03:56:48.143Z,6.65
2023-02-14T03:59:20.382Z,7.13
2023-02-14T04:01:56.841Z,6.68
2023-02-14T04:04:27.755Z,6.05
2023-02-14T04:06:55.000Z,6.93
2023-02-14T04:09:21.812Z,6.70
2023-02-14T04:11:50.536Z,6.82
2023-02-14T04:14:18.198Z,7.60
2023-02-14T04:17:03.638Z,7.07
2023-02-14T04:19:30.461Z,6.63
2023-02-14T04:21:57.442Z,6.72
2023-02-14T04:24:24.287Z,6.65
2023-02-14T04:27:05.946Z,6.43
2023-02-14T04:29:32.640Z,7.00
2023-02-14T04:31:59.459Z,6.43
2023-02-14T04:34:26.326Z,7.35
2023-02-14T04:36:53.095Z,6.32
2023-02-14T04:39:19.859Z,6.70
2023-02-14T04:41:46.614Z,7.00
2023-02-14T04:44:13.398Z,6.80
2023-02-14T04:46:40.254Z,7.82
2023-02-14T04:49:07.092Z,7.53
2023-02-14T04:51:33.814Z,7.65
2023-02-14T04:54:00.561Z,7.32
2023-02-14T04:56:27.353Z,8.15
2023-02-14T04:58:55.089Z,7.72
2023-02-14T05:01:22.145Z,7.03
2023-02-14T05:04:03.787Z,7.88
2023-02-14T05:06:30.610Z,7.07
2023-02-14T05:08:57.421Z,7.47
2023-02-14T05:11:24.475Z,7.55
2023-02-14T05:13:51.282Z,7.60
2023-02-14T05:16:18.125Z,7.68
2023-02-14T05:18:45.308Z,7.05
2023-02-14T05:21:12.182Z,6.75
2023-02-14T05:23:39.554Z,7.55
2023-02-14T05:26:06.868Z,7.68
2023-02-14T05:28:33.705Z,8.30
2023-02-14T05:31:01.111Z,7.57
2023-02-14T05:33:28.310Z,6.97
2023-02-14T05:35:55.138Z,7.53
2023-02-14T05:38:21.912Z,8.00
2023-02-14T05:40:48.603Z,8.32
2023-02-14T05:43:15.424Z,8.10
2023-02-14T05:45:42.221Z,8.18
2023-02-14T05:48:09.054Z,8.98
2023-02-14T05:50:35.820Z,8.02
2023-02-14T05:53:02.853Z,8.00
2023-02-14T05:55:29.675Z,7.95
2023-02-14T05:57:56.830Z,8.20
2023-02-14T06:00:24.938Z,8.80
2023-02-14T06:02:51.880Z,9.25
2023-02-14T06:05:20.207Z,8.25
2023-02-14T06:07:52.690Z,8.05
2023-02-14T06:10:21.356Z,8.63
2023-02-14T06:12:53.547Z,9.00
2023-02-14T06:15:20.472Z,9.20
2023-02-14T06:17:57.708Z,8.85
2023-02-14T06:20:25.294Z,9.15
2023-02-14T06:22:52.816Z,8.60
2023-02-14T06:25:20.459Z,8.80
2023-02-14T06:27:49.259Z,8.75
2023-02-14T06:30:17.702Z,9.98
2023-02-14T06:32:44.724Z,9.38
2023-02-14T06:35:11.605Z,8.85
2023-02-14T06:37:42.319Z,8.63
2023-02-14T06:40:10.232Z,9.13
2023-02-14T06:42:37.528Z,8.95
2023-02-14T06:45:05.043Z,8.88
2023-02-14T06:47:34.619Z,8.45
2023-02-14T06:50:01.816Z,9.63
2023-02-14T06:52:31.812Z,9.35
2023-02-14T06:54:58.698Z,11.32
2023-02-14T06:57:25.641Z,10.60
2023-02-14T06:59:52.385Z,11.98
2023-02-14T07:02:19.612Z,11.60
2023-02-14T07:04:46.528Z,11.48
2023-02-14T07:07:13.382Z,11.98
2023-02-14T07:09:40.153Z,11.82
2023-02-14T07:12:07.263Z,11.50
2023-02-14T07:14:34.058Z,12.38
2023-02-14T07:17:01.023Z,12.32
2023-02-14T07:19:27.847Z,11.52
2023-02-14T07:21:54.686Z,12.75
2023-02-14T07:24:21.464Z,13.02
2023-02-14T07:26:48.203Z,11.65
2023-02-14T07:29:15.010Z,12.45
2023-02-14T07:31:41.894Z,13.15
2023-02-14T07:34:08.688Z,12.55
2023-02-14T07:36:37.186Z,13.80
2023-02-14T07:39:04.007Z,13.60
2023-02-14T07:41:30.837Z,14.40
2023-02-14T07:43:57.627Z,13.07
2023-02-14T07:46:24.561Z,14.38
2023-02-14T07:48:52.112Z,34.58
2023-02-14T07:51:19.006Z,13.57
2023-02-14T07:53:45.996Z,14.80
2023-02-14T07:56:12.811Z,13.20
2023-02-14T07:58:39.728Z,13.55
2023-02-14T08:01:06.643Z,14.45
2023-02-14T08:03:33.491Z,14.85
2023-02-14T08:06:00.361Z,13.50
2023-02-14T08:08:30.140Z,14.05
2023-02-14T08:10:57.957Z,14.32
2023-02-14T08:13:25.060Z,15.85
2023-02-14T08:16:11.809Z,13.95
2023-02-14T08:18:41.469Z,13.98
2023-02-14T08:21:10.214Z,14.57
2023-02-14T08:23:37.904Z,13.80
2023-02-14T08:26:05.255Z,14.77
2023-02-14T08:28:33.235Z,12.82
2023-02-14T08:31:00.899Z,13.75
2023-02-14T08:33:28.261Z,13.70
2023-02-14T08:35:55.161Z,15.05
2023-02-14T08:38:22.286Z,14.48
2023-02-14T08:40:49.212Z,14.38
2023-02-14T08:43:16.274Z,13.50
2023-02-14T08:45:43.258Z,13.85
2023-02-14T08:48:12.219Z,13.45
2023-02-14T08:50:40.042Z,13.57
2023-02-14T08:53:08.521Z,14.57
2023-02-14T08:55:36.054Z,13.05
2023-02-14T08:58:04.000Z,13.95
2023-02-14T09:00:31.642Z,14.25
2023-02-14T09:02:58.816Z,13.63
2023-02-14T09:05:26.615Z,14.30
2023-02-14T09:07:56.573Z,14.27
2023-02-14T09:10:24.533Z,14.93
2023-02-14T09:12:51.866Z,14.23
2023-02-14T09:15:18.857Z,13.85
2023-02-14T09:17:45.782Z,13.52
2023-02-14T09:20:14.923Z,13.68
2023-02-14T09:22:41.834Z,13.90
2023-02-14T09:25:08.950Z,14.30
2023-02-14T09:27:36.095Z,14.85
2023-02-14T09:30:03.212Z,13.43
2023-02-14T09:32:30.537Z,14.27
2023-02-14T09:34:57.344Z,14.80
2023-02-14T09:37:42.792Z,13.15
2023-02-14T09:40:13.076Z,14.52
2023-02-14T09:43:02.078Z,13.88
2023-02-14T09:45:32.262Z,14.68
2023-02-14T09:48:34.369Z,12.98
2023-02-14T09:51:08.827Z,13.00
2023-02-14T09:53:49.457Z,13.48
2023-02-14T09:56:42.856Z,13.45
2023-02-14T10:00:00.242Z,12.48
2023-02-14T10:02:37.957Z,12.88
2023-02-14T10:05:15.617Z,12.82
2023-02-14T10:08:03.986Z,13.13
2023-02-14T10:10:42.272Z,13.23
2023-02-14T10:13:37.023Z,13.43
2023-02-14T10:16:12.449Z,13.25
2023-02-14T10:18:57.964Z,13.38
2023-02-14T10:21:47.116Z,13.13
2023-02-14T10:24:20.070Z,13.32
2023-02-14T10:26:49.412Z,12.80
2023-02-14T10:29:19.120Z,14.05
2023-02-14T10:31:57.752Z,13.38
2023-02-14T10:34:50.475Z,13.43
2023-02-14T10:37:37.611Z,13.73
2023-02-14T10:40:20.600Z,13.82
2023-02-14T10:42:50.470Z,14.20
2023-02-14T10:45:26.250Z,13.32
2023-02-14T10:48:29.906Z,13.52
2023-02-14T10:51:03.978Z,13.68
2023-02-14T10:53:48.827Z,12.68
2023-02-14T10:56:21.802Z,13.20
2023-02-14T10:58:51.289Z,13.90
2023-02-14T11:01:19.502Z,13.85
2023-02-14T11:04:08.768Z,12.93
2023-02-14T11:06:35.599Z,13.30
2023-02-14T11:09:03.266Z,13.30
2023-02-14T11:11:30.054Z,12.68
2023-02-14T11:13:56.961Z,13.80
2023-02-14T11:16:37.138Z,14.25
2023-02-14T11:19:19.202Z,13.98
2023-02-14T11:21:47.588Z,13.75
2023-02-14T11:24:18.440Z,13.95
2023-02-14T11:26:50.125Z,15.10
2023-02-14T11:29:26.443Z,14.93
2023-02-14T11:31:53.592Z,15.90
2023-02-14T11:34:29.294Z,14.82
2023-02-14T11:36:56.149Z,15.38
2023-02-14T11:39:29.881Z,15.70
2023-02-14T11:41:59.964Z,15.75
2023-02-14T11:44:29.887Z,15.88
2023-02-14T11:47:15.833Z,15.88
2023-02-14T11:50:06.120Z,16.10
2023-02-14T11:52:37.217Z,15.52
2023-02-14T11:55:04.918Z,17.85
2023-02-14T11:57:37.875Z,17.15
2023-02-14T12:00:17.433Z,17.30
2023-02-14T12:02:49.821Z,16.92
2023-02-14T12:05:30.527Z,17.48
2023-02-14T12:08:08.175Z,17.15
2023-02-14T12:10:40.267Z,17.50
2023-02-14T12:13:10.081Z,15.82
2023-02-14T12:15:56.989Z,17.30
2023-02-14T12:18:47.165Z,16.02
2023-02-14T12:21:35.282Z,16.35
2023-02-14T12:24:37.047Z,15.43
2023-02-14T12:27:07.320Z,16.90
2023-02-14T12:29:34.231Z,15.65
2023-02-14T12:32:12.018Z,15.18
2023-02-14T12:34:38.848Z,16.15
2023-02-14T12:37:19.071Z,15.18
2023-02-14T12:39:47.856Z,15.63
2023-02-14T12:42:46.392Z,15.23
2023-02-14T12:45:50.962Z,13.73
2023-02-14T12:48:37.226Z,15.75
2023-02-14T12:51:04.036Z,15.55
2023-02-14T12:53:49.464Z,13.88
2023-02-14T12:56:34.005Z,14.65
2023-02-14T12:59:52.701Z,14.38
2023-02-14T13:02:28.804Z,14.32
2023-02-14T13:05:22.277Z,14.63
2023-02-14T13:08:00.544Z,13.80
2023-02-14T13:11:08.550Z,13.48
2023-02-14T13:13:56.229Z,13.52
2023-02-14T13:16:50.416Z,12.38
2023-02-14T13:19:46.456Z,13.95
2023-02-14T13:22:20.756Z,12.38
2023-02-14T13:24:51.255Z,12.30
2023-02-14T13:27:30.265Z,12.30
2023-02-14T13:30:02.717Z,13.30
2023-02-14T13:32:40.173Z,12.27
2023-02-14T13:35:08.471Z,11.65
2023-02-14T13:37:37.149Z,12.23
2023-02-14T13:40:16.638Z,12.77
2023-02-14T13:42:52.369Z,11.70
2023-02-14T13:45:40.227Z,10.77
2023-02-14T13:48:29.276Z,10.45
2023-02-14T13:51:02.207Z,11.50
2023-02-14T13:53:47.189Z,10.73
2023-02-14T13:56:16.960Z,10.82
2023-02-14T13:58:52.405Z,11.00
2023-02-14T14:01:50.657Z,11.25
2023-02-14T14:04:30.365Z,12.65
2023-02-14T14:07:03.630Z,12.13
2023-02-14T14:09:42.711Z,11.38
2023-02-14T14:12:27.626Z,11.30
2023-02-14T14:15:06.573Z,11.73
2023-02-14T14:17:38.057Z,11.98
2023-02-14T14:20:16.849Z,11.82
2023-02-14T14:22:58.597Z,12.23
2023-02-14T14:25:42.848Z,11.55
2023-02-14T14:28:18.396Z,11.50
2023-02-14T14:30:45.963Z,12.95
2023-02-14T14:33:25.500Z,11.70
2023-02-14T14:36:02.389Z,12.77
2023-02-14T14:38:30.713Z,13.48
2023-02-14T14:40:58.109Z,12.40
2023-02-14T14:43:36.803Z,11.93
2023-02-14T14:46:07.731Z,12.27
2023-02-14T14:49:05.883Z,11.90
2023-02-14T14:51:35.732Z,12.57
2023-02-14T14:54:07.061Z,12.57
2023-02-14T14:56:36.926Z,12.88
2023-02-14T14:59:22.584Z,13.32
2023-02-14T15:01:54.572Z,13.70
2023-02-14T15:04:35.331Z,12.90
2023-02-14T15:07:20.120Z,13.13
2023-02-14T15:09:47.143Z,12.00
2023-02-14T15:12:38.375Z,13.13
2023-02-14T15:15:09.202Z,13.43
2023-02-14T15:17:37.862Z,12.57
2023-02-14T15:20:18.902Z,12.77
2023-02-14T15:22:48.339Z,13.48
2023-02-14T15:25:25.916Z,13.73
2023-02-14T15:27:53.235Z,13.00
2023-02-14T15:30:20.180Z,12.57
2023-02-14T15:32:51.114Z,13.05
2023-02-14T15:35:22.876Z,11.45
2023-02-14T15:37:52.065Z,13.35
2023-02-14T15:40:22.694Z,12.07
2023-02-14T15:42:56.101Z,12.18
2023-02-14T15:47:57.128Z,12.82
2023-02-14T15:50:45.819Z,13.30
2023-02-14T15:53:21.447Z,12.40
2023-02-14T15:55:50.558Z,12.30
2023-02-14T15:58:24.200Z,12.77
2023-02-14T16:00:53.427Z,13.20
2023-02-14T16:03:26.971Z,12.65
2023-02-14T16:05:57.613Z,12.68
2023-02-14T16:08:34.946Z,13.43
2023-02-14T16:11:27.430Z,12.40
2023-02-14T16:13:54.382Z,13.73
2023-02-14T16:16:21.797Z,12.50
2023-02-14T16:18:54.979Z,13.07
2023-02-14T16:21:27.645Z,12.30
2023-02-14T16:24:10.919Z,14.02
2023-02-14T16:26:45.979Z,13.75
2023-02-14T16:29:17.494Z,12.80
2023-02-14T16:34:38.080Z,13.23
2023-02-14T16:37:18.432Z,12.88
2023-02-14T16:39:45.504Z,13.00
2023-02-14T16:42:21.375Z,13.65
2023-02-14T16:44:48.620Z,13.35
2023-02-14T16:47:18.341Z,13.40
2023-02-14T16:49:45.463Z,13.45
2023-02-14T16:52:23.887Z,13.73
2023-02-14T16:54:51.197Z,13.32
2023-02-14T16:57:37.413Z,14.38
2023-02-14T17:00:06.588Z,13.95
2023-02-14T17:02:35.028Z,13.45
2023-02-14T17:05:02.117Z,14.52
2023-02-14T17:07:32.954Z,14.10
2023-02-14T17:10:11.998Z,13.93
2023-02-14T17:12:44.137Z,13.02
2023-02-14T17:15:15.553Z,13.93
2023-02-14T17:17:43.213Z,14.13
2023-02-14T17:20:10.607Z,13.05
2023-02-14T17:22:37.886Z,12.13
2023-02-14T17:25:06.067Z,11.95
2023-02-14T17:27:32.933Z,12.48
2023-02-14T17:29:59.834Z,11.57
2023-02-14T17:32:26.733Z,10.95
2023-02-14T17:34:53.941Z,11.45
2023-02-14T17:37:20.779Z,10.80
2023-02-14T17:39:47.724Z,10.73
2023-02-14T17:42:14.595Z,9.27
2023-02-14T17:44:41.458Z,9.38
2023-02-14T17:47:08.465Z,8.25
2023-02-14T17:49:35.523Z,8.90
2023-02-14T17:52:02.454Z,8.70
2023-02-14T17:54:29.205Z,8.07
2023-02-14T17:56:55.948Z,9.43
2023-02-14T17:59:22.809Z,8.27
2023-02-14T18:01:49.688Z,9.27
2023-02-14T18:04:16.559Z,8.27
2023-02-14T18:06:43.450Z,7.75
2023-02-14T18:09:10.268Z,7.28
2023-02-14T18:11:40.645Z,7.72
2023-02-14T18:14:07.428Z,8.02
2023-02-14T18:16:34.412Z,7.25
2023-02-14T18:19:05.540Z,7.05
2023-02-14T18:21:40.012Z,6.68
2023-02-14T18:24:07.653Z,7.22
2023-02-14T18:26:36.147Z,7.95
2023-02-14T18:29:06.684Z,6.93
2023-02-14T18:31:35.697Z,7.60
2023-02-14T18:34:02.838Z,7.28
2023-02-14T18:36:31.828Z,6.43
2023-02-14T18:38:59.220Z,5.93
2023-02-14T18:41:27.108Z,6.50
2023-02-14T18:43:54.139Z,6.75
2023-02-14T18:46:24.234Z,6.50
2023-02-14T18:48:51.773Z,7.80
2023-02-14T18:51:24.120Z,7.15
2023-02-14T18:53:54.928Z,7.15
2023-02-14T18:56:24.160Z,7.88
2023-02-14T18:58:56.291Z,7.38
2023-02-14T19:01:29.209Z,6.50
2023-02-14T19:03:56.836Z,7.45
2023-02-14T19:06:23.783Z,7.57
2023-02-14T19:08:51.194Z,7.35
2023-02-14T19:11:21.559Z,6.65
2023-02-14T19:13:53.463Z,7.35
2023-02-14T19:16:24.041Z,7.68
2023-02-14T19:18:53.390Z,7.88
2023-02-14T19:21:26.182Z,7.63
2023-02-14T19:23:56.136Z,6.93
2023-02-14T19:26:32.877Z,7.40
2023-02-14T19:29:03.445Z,8.52
2023-02-14T19:31:36.376Z,8.80
2023-02-14T19:34:04.705Z,8.88
2023-02-14T19:36:32.166Z,9.85
2023-02-14T19:38:58.989Z,8.95
2023-02-14T19:41:29.769Z,8.65
2023-02-14T19:43:58.099Z,8.50
2023-02-14T19:46:25.703Z,9.40
2023-02-14T19:48:52.544Z,8.80
2023-02-14T19:51:28.959Z,8.60
2023-02-14T19:53:57.176Z,8.95
2023-02-14T19:56:27.366Z,8.93
2023-02-14T19:58:56.124Z,9.82
2023-02-14T20:01:42.103Z,8.93
2023-02-14T20:04:13.820Z,8.23
2023-02-14T20:06:41.354Z,9.00
2023-02-14T20:09:09.337Z,8.70
2023-02-14T20:11:50.860Z,8.70
2023-02-14T20:14:22.697Z,8.40
2023-02-14T20:16:50.982Z,7.70
2023-02-14T20:19:21.020Z,8.93
2023-02-14T20:21:49.996Z,9.77
2023-02-14T20:24:22.406Z,9.23
2023-02-14T20:26:50.660Z,9.40
2023-02-14T20:29:18.441Z,8.98
2023-02-14T20:31:53.764Z,10.45
2023-02-14T20:34:21.433Z,9.30
2023-02-14T20:36:55.981Z,10.05
2023-02-14T20:39:27.592Z,9.52
2023-02-14T20:41:54.419Z,10.75
2023-02-14T20:44:21.825Z,9.57
2023-02-14T20:46:53.938Z,9.60
2023-02-14T20:49:21.957Z,10.23
2023-02-14T20:51:50.543Z,10.13
2023-02-14T20:54:18.751Z,9.63
2023-02-14T20:56:46.154Z,10.15
2023-02-14T20:59:13.713Z,10.20
2023-02-14T21:01:40.952Z,10.55
2023-02-14T21:04:07.762Z,9.70
2023-02-14T21:06:39.823Z,11.13
2023-02-14T21:09:06.998Z,10.48
2023-02-14T21:11:33.772Z,11.27
2023-02-14T21:14:02.080Z,10.60
2023-02-14T21:16:30.287Z,10.32
2023-02-14T21:18:59.304Z,9.50
2023-02-14T21:21:37.655Z,9.52
2023-02-14T21:24:10.842Z,10.48
2023-02-14T21:26:38.294Z,10.20
2023-02-14T21:29:06.066Z,10.25
2023-02-14T21:31:33.635Z,10.98
2023-02-14T21:34:02.051Z,10.73
2023-02-14T21:36:35.632Z,10.57
2023-02-14T21:39:03.815Z,10.90
2023-02-14T21:41:31.507Z,11.48
2023-02-14T21:43:59.723Z,10.32
2023-02-14T21:46:32.260Z,10.60
2023-02-14T21:49:19.743Z,11.52
2023-02-14T21:51:47.761Z,11.48
2023-02-14T21:54:15.447Z,11.07
2023-02-14T21:56:42.716Z,11.60
2023-02-14T21:59:10.010Z,11.82
2023-02-14T22:01:38.869Z,11.93
2023-02-14T22:04:09.184Z,12.23
2023-02-14T22:06:38.797Z,11.60
2023-02-14T22:09:07.005Z,13.30
2023-02-14T22:11:34.388Z,12.73
2023-02-14T22:14:01.230Z,13.25
2023-02-14T22:16:28.529Z,11.65
2023-02-14T22:18:55.538Z,12.68
2023-02-14T22:21:24.977Z,13.32
2023-02-14T22:23:53.390Z,13.52
2023-02-14T22:26:29.222Z,14.20
2023-02-14T22:28:59.225Z,14.02
2023-02-14T22:31:30.744Z,12.70
2023-02-14T22:33:57.822Z,13.45
2023-02-14T22:36:25.239Z,13.45
2023-02-14T22:38:52.121Z,13.02
2023-02-14T22:41:21.313Z,12.90
2023-02-14T22:43:48.429Z,12.75
2023-02-14T22:46:23.567Z,13.27
2023-02-14T22:48:51.384Z,13.65
2023-02-14T22:51:22.522Z,12.95
2023-02-14T22:53:51.038Z,13.13
2023-02-14T22:56:21.347Z,13.13
2023-02-14T22:58:56.794Z,13.25
2023-02-14T23:01:24.524Z,12.45
2023-02-14T23:03:55.130Z,13.40
2023-02-14T23:06:22.694Z,12.85
2023-02-14T23:08:49.604Z,12.18
2023-02-14T23:11:22.846Z,12.65
2023-02-14T23:14:08.709Z,12.65
2023-02-14T23:16:54.395Z,13.10
2023-02-14T23:19:45.464Z,12.50
2023-02-14T23:22:15.611Z,12.63
2023-02-14T23:24:42.897Z,11.90
2023-02-14T23:27:10.225Z,12.68
2023-02-14T23:29:37.956Z,13.52
2023-02-14T23:32:06.541Z,12.70
2023-02-14T23:34:35.780Z,13.32
2023-02-14T23:37:03.269Z,13.00
2023-02-14T23:39:35.844Z,13.30
2023-02-14T23:42:08.065Z,13.35
2023-02-14T23:44:36.282Z,13.85
2023-02-14T23:47:06.254Z,13.68
2023-02-14T23:49:34.529Z,12.70
2023-02-14T23:52:02.252Z,13.50
2023-02-14T23:54:29.109Z,13.68
2023-02-14T23:56:57.493Z,13.57
2023-02-14T23:59:24.653Z,13.70
